createdAt,value
2018-06-13T00:01:39.305Z,14.67
2018-06-13T00:04:42.276Z,14.63
2018-06-13T00:07:45.300Z,14.61
2018-06-13T00:10:48.331Z,14.62
2018-06-13T00:13:51.358Z,14.60
2018-06-13T00:16:54.392Z,14.53
2018-06-13T00:19:57.301Z,14.41
2018-06-13T00:23:00.254Z,14.48
2018-06-13T00:26:03.282Z,14.45
2018-06-13T00:29:06.338Z,14.42
2018-06-13T00:32:09.341Z,14.32
2018-06-13T00:35:12.366Z,14.21
2018-06-13T00:38:15.409Z,14.18
2018-06-13T00:41:18.348Z,14.15
2018-06-13T00:44:21.428Z,14.12
2018-06-13T00:47:24.481Z,13.99
2018-06-13T00:50:27.559Z,14.01
2018-06-13T00:53:30.459Z,14.02
2018-06-13T00:56:33.462Z,13.98
2018-06-13T00:59:37.358Z,13.96
2018-06-13T01:02:40.313Z,13.93
2018-06-13T01:05:43.381Z,13.91
2018-06-13T01:08:46.409Z,13.89
2018-06-13T01:11:49.339Z,13.87
2018-06-13T01:14:52.308Z,13.86
2018-06-13T01:17:55.271Z,13.89
2018-06-13T01:20:58.241Z,13.85
2018-06-13T01:24:01.266Z,13.88
2018-06-13T01:27:04.223Z,13.85
2018-06-13T01:30:07.240Z,13.79
2018-06-13T01:33:10.544Z,13.77
2018-06-13T01:36:19.762Z,13.71
2018-06-13T01:39:22.748Z,13.70
2018-06-13T01:42:25.736Z,13.66
2018-06-13T01:45:28.671Z,13.67
2018-06-13T01:48:31.642Z,13.64
2018-06-13T01:51:34.584Z,13.65
2018-06-13T01:54:37.639Z,13.65
2018-06-13T01:57:40.563Z,13.69
2018-06-13T02:00:43.601Z,13.66
2018-06-13T02:03:46.557Z,13.70
2018-06-13T02:06:49.536Z,13.68
2018-06-13T02:09:52.552Z,13.67
2018-06-13T02:12:55.502Z,13.65
2018-06-13T02:15:58.465Z,13.64
2018-06-13T02:19:01.542Z,13.73
2018-06-13T02:22:04.478Z,13.76
2018-06-13T02:25:07.469Z,13.73
2018-06-13T02:28:10.452Z,13.76
2018-06-13T02:31:13.339Z,13.73
2018-06-13T02:34:16.447Z,13.71
2018-06-13T02:37:19.463Z,13.68
2018-06-13T02:40:22.392Z,13.72
2018-06-13T02:43:26.325Z,13.68
2018-06-13T02:46:29.344Z,13.71
2018-06-13T02:49:32.322Z,13.69
2018-06-13T02:52:35.272Z,13.70
2018-06-13T02:55:38.260Z,13.70
2018-06-13T02:58:41.296Z,13.63
2018-06-13T03:01:44.173Z,13.55
2018-06-13T03:04:47.149Z,13.51
2018-06-13T03:07:50.182Z,13.38
2018-06-13T03:10:53.099Z,13.37
2018-06-13T03:13:56.121Z,13.39
2018-06-13T03:17:00.149Z,13.41
2018-06-13T03:20:03.145Z,13.44
2018-06-13T03:23:06.080Z,13.41
2018-06-13T03:26:10.065Z,13.40
2018-06-13T03:29:13.033Z,13.46
2018-06-13T03:32:15.920Z,13.40
2018-06-13T03:35:18.883Z,13.34
2018-06-13T03:38:22.507Z,13.34
2018-06-13T03:41:25.497Z,13.32
2018-06-13T03:44:28.490Z,13.37
2018-06-13T03:47:31.416Z,13.32
2018-06-13T03:50:34.370Z,13.42
2018-06-13T03:53:37.279Z,13.41
2018-06-13T03:56:40.244Z,13.49
2018-06-13T03:59:43.216Z,13.98
2018-06-13T04:02:46.189Z,14.90
2018-06-13T04:05:49.210Z,15.62
2018-06-13T04:08:52.163Z,15.95
2018-06-13T04:11:55.173Z,15.80
2018-06-13T04:14:58.190Z,15.54
2018-06-13T04:18:01.127Z,16.02
2018-06-13T04:21:04.162Z,16.33
2018-06-13T04:24:07.220Z,16.29
2018-06-13T04:27:10.209Z,16.66
2018-06-13T04:30:13.128Z,17.19
2018-06-13T04:33:16.085Z,16.79
2018-06-13T04:36:19.009Z,16.77
2018-06-13T04:39:21.978Z,17.75
2018-06-13T04:42:24.958Z,18.07
2018-06-13T04:45:27.872Z,18.59
2018-06-13T04:48:30.806Z,18.13
2018-06-13T04:51:33.816Z,18.42
2018-06-13T04:54:36.797Z,18.29
2018-06-13T04:57:39.873Z,17.77
2018-06-13T05:00:42.901Z,17.44
2018-06-13T05:03:45.801Z,17.24
2018-06-13T05:06:48.805Z,14.90
2018-06-13T05:09:51.910Z,14.14
2018-06-13T05:12:54.840Z,13.96
2018-06-13T05:15:57.858Z,13.92
2018-06-13T05:19:00.760Z,13.72
2018-06-13T05:22:03.714Z,13.56
2018-06-13T05:25:06.786Z,13.59
2018-06-13T05:28:09.834Z,13.53
2018-06-13T05:31:12.745Z,13.51
2018-06-13T05:34:15.819Z,13.40
2018-06-13T05:37:18.841Z,13.48
2018-06-13T05:40:21.815Z,13.56
2018-06-13T05:43:24.889Z,13.47
2018-06-13T05:46:27.831Z,13.62
2018-06-13T05:49:30.754Z,13.68
2018-06-13T05:52:34.365Z,13.56
2018-06-13T05:55:37.465Z,13.48
2018-06-13T05:58:40.496Z,13.51
2018-06-13T06:01:43.634Z,13.45
2018-06-13T06:04:46.614Z,13.44
2018-06-13T06:07:51.012Z,13.51
2018-06-13T06:10:54.078Z,13.44
2018-06-13T06:13:57.125Z,13.45
2018-06-13T06:17:00.211Z,13.44
2018-06-13T06:20:04.764Z,13.50
2018-06-13T06:23:07.776Z,13.55
2018-06-13T06:26:11.115Z,13.59
2018-06-13T06:29:14.091Z,13.68
2018-06-13T06:32:17.097Z,13.72
2018-06-13T06:35:20.083Z,13.86
2018-06-13T06:38:23.137Z,13.95
2018-06-13T06:41:26.077Z,14.09
2018-06-13T06:44:29.025Z,13.91
2018-06-13T06:47:33.071Z,14.21
2018-06-13T06:50:36.019Z,14.09
2018-06-13T06:53:39.089Z,14.04
2018-06-13T06:56:42.153Z,14.07
2018-06-13T06:59:45.182Z,13.92
2018-06-13T07:02:48.361Z,14.03
2018-06-13T07:05:51.320Z,13.96
2018-06-13T07:08:54.360Z,14.05
2018-06-13T07:11:57.397Z,14.09
2018-06-13T07:15:00.369Z,14.24
2018-06-13T07:18:03.341Z,14.18
2018-06-13T07:21:07.062Z,14.37
2018-06-13T07:24:10.067Z,14.35
2018-06-13T07:27:13.148Z,14.31
2018-06-13T07:30:16.094Z,14.33
2018-06-13T07:33:19.212Z,14.36
2018-06-13T07:36:22.194Z,14.29
2018-06-13T07:39:25.216Z,14.27
2018-06-13T07:42:28.291Z,14.36
2018-06-13T07:45:31.234Z,14.40
2018-06-13T07:48:35.294Z,14.38
2018-06-13T07:51:38.393Z,14.36
2018-06-13T07:54:41.344Z,14.31
2018-06-13T07:57:44.351Z,14.30
2018-06-13T08:00:47.352Z,14.42
2018-06-13T08:03:50.319Z,14.55
2018-06-13T08:06:53.308Z,14.91
2018-06-13T08:09:56.306Z,14.99
2018-06-13T08:12:59.334Z,15.28
2018-06-13T08:16:02.421Z,15.66
2018-06-13T08:19:05.299Z,15.60
2018-06-13T08:22:08.374Z,15.96
2018-06-13T08:25:11.317Z,15.61
2018-06-13T08:28:14.301Z,15.28
2018-06-13T08:31:17.306Z,15.20
2018-06-13T08:34:20.277Z,15.18
2018-06-13T08:37:23.317Z,15.32
2018-06-13T08:40:26.281Z,15.29
2018-06-13T08:43:29.288Z,15.66
2018-06-13T08:46:32.268Z,15.60
2018-06-13T08:49:35.271Z,15.78
2018-06-13T08:52:38.305Z,15.89
2018-06-13T08:55:41.427Z,16.02
2018-06-13T08:58:44.688Z,15.85
2018-06-13T09:01:47.716Z,15.56
2018-06-13T09:04:50.746Z,15.73
2018-06-13T09:07:53.653Z,15.58
2018-06-13T09:10:56.555Z,15.28
2018-06-13T09:13:59.483Z,15.15
2018-06-13T09:17:02.955Z,15.17
2018-06-13T09:20:06.600Z,15.11
2018-06-13T09:23:09.554Z,15.25
2018-06-13T09:26:12.556Z,15.29
2018-06-13T09:29:15.728Z,15.62
2018-06-13T09:32:18.748Z,15.74
2018-06-13T09:35:21.847Z,15.76
2018-06-13T09:38:25.894Z,15.99
2018-06-13T09:41:28.996Z,16.51
2018-06-13T09:44:32.003Z,16.61
2018-06-13T09:47:34.984Z,17.47
2018-06-13T09:50:38.028Z,17.18
2018-06-13T09:53:41.108Z,17.52
2018-06-13T09:56:44.190Z,17.44
2018-06-13T09:59:52.895Z,17.22
2018-06-13T10:02:55.842Z,17.18
2018-06-13T10:05:59.509Z,16.95
2018-06-13T10:09:06.306Z,16.51
2018-06-13T10:12:09.481Z,16.56
2018-06-13T10:15:12.500Z,16.23
2018-06-13T10:18:15.571Z,15.76
2018-06-13T10:21:18.616Z,15.81
2018-06-13T10:24:22.556Z,16.05
2018-06-13T10:27:31.270Z,16.20
2018-06-13T10:30:34.308Z,16.67
2018-06-13T10:33:37.482Z,16.37
2018-06-13T10:36:41.479Z,16.54
2018-06-13T10:39:44.460Z,16.61
2018-06-13T10:42:47.446Z,17.30
2018-06-13T10:45:50.491Z,17.59
2018-06-13T10:48:53.541Z,17.74
2018-06-13T10:51:57.523Z,17.87
2018-06-13T10:55:02.525Z,18.77
2018-06-13T10:58:05.477Z,17.85
2018-06-13T11:01:08.456Z,17.52
2018-06-13T11:04:11.408Z,17.80
2018-06-13T11:07:14.422Z,18.22
2018-06-13T11:10:18.496Z,17.80
2018-06-13T11:13:21.619Z,17.97
2018-06-13T11:16:24.776Z,17.17
2018-06-13T11:19:27.799Z,17.11
2018-06-13T11:22:31.836Z,17.18
2018-06-13T11:25:35.497Z,16.72
2018-06-13T11:28:38.494Z,16.94
2018-06-13T11:31:41.592Z,16.89
2018-06-13T11:34:46.588Z,16.87
2018-06-13T11:37:49.712Z,17.32
2018-06-13T11:40:53.633Z,17.27
2018-06-13T11:43:56.774Z,17.04
2018-06-13T11:46:59.950Z,17.25
2018-06-13T11:50:02.938Z,16.74
2018-06-13T11:53:05.950Z,16.61
2018-06-13T11:56:08.899Z,16.52
2018-06-13T11:59:12.981Z,16.40
2018-06-13T12:02:15.940Z,16.40
2018-06-13T12:05:18.922Z,16.19
2018-06-13T12:08:21.840Z,16.41
2018-06-13T12:11:26.483Z,16.69
2018-06-13T12:14:30.611Z,16.47
2018-06-13T12:17:33.687Z,16.44
2018-06-13T12:20:37.679Z,16.53
2018-06-13T12:23:40.756Z,16.76
2018-06-13T12:26:43.905Z,16.88
2018-06-13T12:29:47.899Z,16.87
2018-06-13T12:32:50.908Z,17.02
2018-06-13T12:35:54.899Z,17.14
2018-06-13T12:38:58.875Z,17.29
2018-06-13T12:42:01.892Z,17.68
2018-06-13T12:45:05.209Z,17.96
2018-06-13T12:48:09.367Z,17.77
2018-06-13T12:51:12.363Z,18.34
2018-06-13T12:54:16.133Z,18.38
2018-06-13T12:57:19.136Z,18.59
2018-06-13T13:00:22.204Z,18.29
2018-06-13T13:03:25.285Z,18.18
2018-06-13T13:06:28.284Z,17.61
2018-06-13T13:09:31.275Z,17.38
2018-06-13T13:12:34.375Z,17.16
2018-06-13T13:15:37.368Z,17.10
2018-06-13T13:18:40.370Z,17.11
2018-06-13T13:21:43.336Z,17.01
2018-06-13T13:24:46.401Z,17.10
2018-06-13T13:27:50.243Z,16.88
2018-06-13T13:30:53.354Z,16.95
2018-06-13T13:33:56.425Z,16.73
2018-06-13T13:36:59.451Z,16.92
2018-06-13T13:40:02.509Z,16.99
2018-06-13T13:43:05.669Z,16.91
2018-06-13T13:46:08.707Z,16.88
2018-06-13T13:49:11.788Z,17.22
2018-06-13T13:52:14.805Z,16.92
2018-06-13T13:55:17.954Z,17.33
2018-06-13T13:58:22.708Z,17.46
2018-06-13T14:01:25.730Z,18.20
2018-06-13T14:04:28.907Z,18.76
2018-06-13T14:07:32.016Z,19.03
2018-06-13T14:10:34.998Z,18.97
2018-06-13T14:13:38.155Z,18.45
2018-06-13T14:16:41.228Z,17.82
2018-06-13T14:19:44.285Z,17.83
2018-06-13T14:22:47.491Z,17.98
2018-06-13T14:25:51.245Z,17.61
2018-06-13T14:28:54.418Z,17.59
2018-06-13T14:31:57.431Z,17.38
2018-06-13T14:35:00.564Z,17.08
2018-06-13T14:38:03.621Z,17.05
2018-06-13T14:41:06.694Z,17.27
2018-06-13T14:44:09.705Z,17.22
2018-06-13T14:47:12.711Z,17.51
2018-06-13T14:50:15.831Z,17.48
2018-06-13T14:53:18.780Z,17.68
2018-06-13T14:56:27.450Z,17.88
2018-06-13T14:59:30.475Z,17.45
2018-06-13T15:02:33.606Z,17.59
2018-06-13T15:05:36.689Z,18.06
2018-06-13T15:08:39.787Z,18.10
2018-06-13T15:11:43.053Z,18.04
2018-06-13T15:14:48.156Z,17.79
2018-06-13T15:17:51.227Z,17.58
2018-06-13T15:20:54.277Z,17.54
2018-06-13T15:23:58.307Z,17.43
2018-06-13T15:27:01.353Z,17.22
2018-06-13T15:30:04.549Z,16.69
2018-06-13T15:33:08.360Z,16.93
2018-06-13T15:36:11.389Z,16.95
2018-06-13T15:39:15.247Z,17.55
2018-06-13T15:42:18.211Z,17.56
2018-06-13T15:45:21.225Z,17.22
2018-06-13T15:48:24.238Z,17.47
2018-06-13T15:51:28.232Z,17.17
2018-06-13T15:54:31.297Z,17.55
2018-06-13T15:57:34.381Z,17.40
2018-06-13T16:00:37.343Z,17.18
2018-06-13T16:03:40.263Z,16.79
2018-06-13T16:06:43.252Z,16.69
2018-06-13T16:09:46.211Z,16.56
2018-06-13T16:12:49.262Z,16.70
2018-06-13T16:15:53.336Z,17.25
2018-06-13T16:18:56.525Z,17.04
2018-06-13T16:21:59.514Z,16.97
2018-06-13T16:25:02.756Z,16.83
2018-06-13T16:28:05.824Z,16.95
2018-06-13T16:31:08.967Z,17.10
2018-06-13T16:34:12.085Z,17.18
2018-06-13T16:37:15.220Z,17.00
2018-06-13T16:40:18.265Z,17.11
2018-06-13T16:43:21.294Z,17.20
2018-06-13T16:46:24.313Z,17.36
2018-06-13T16:49:27.654Z,16.87
2018-06-13T16:52:47.737Z,17.06
2018-06-13T16:55:50.745Z,17.01
2018-06-13T16:58:54.766Z,17.20
2018-06-13T17:01:57.735Z,17.01
2018-06-13T17:05:00.789Z,16.99
2018-06-13T17:08:03.868Z,17.10
2018-06-13T17:11:06.871Z,16.74
2018-06-13T17:14:09.936Z,16.46
2018-06-13T17:17:12.923Z,16.45
2018-06-13T17:20:15.886Z,16.48
2018-06-13T17:23:19.131Z,16.43
2018-06-13T17:26:25.208Z,16.42
2018-06-13T17:29:28.827Z,16.44
2018-06-13T17:32:31.911Z,16.42
2018-06-13T17:35:34.982Z,16.44
2018-06-13T17:38:38.052Z,16.36
2018-06-13T17:41:42.228Z,16.41
2018-06-13T17:44:45.535Z,16.21
2018-06-13T17:47:48.543Z,16.19
2018-06-13T17:50:51.706Z,16.17
2018-06-13T17:53:54.842Z,15.99
2018-06-13T17:56:57.856Z,15.92
2018-06-13T18:00:04.895Z,15.93
2018-06-13T18:03:07.900Z,15.82
2018-06-13T18:06:10.877Z,15.81
2018-06-13T18:09:14.206Z,15.85
2018-06-13T18:12:17.992Z,15.85
2018-06-13T18:15:20.959Z,15.78
2018-06-13T18:18:23.988Z,15.74
2018-06-13T18:21:31.076Z,15.71
2018-06-13T18:24:34.176Z,15.83
2018-06-13T18:27:37.219Z,15.75
2018-06-13T18:30:41.290Z,15.76
2018-06-13T18:33:44.346Z,15.72
2018-06-13T18:36:47.320Z,15.60
2018-06-13T18:39:50.362Z,15.54
2018-06-13T18:42:53.323Z,15.60
2018-06-13T18:45:56.466Z,15.48
2018-06-13T18:48:59.471Z,15.43
2018-06-13T18:52:02.516Z,15.35
2018-06-13T18:55:05.513Z,15.30
2018-06-13T18:58:14.273Z,15.22
2018-06-13T19:01:17.495Z,15.20
2018-06-13T19:04:20.548Z,15.15
2018-06-13T19:07:23.531Z,15.14
2018-06-13T19:10:26.456Z,15.05
2018-06-13T19:13:30.429Z,14.92
2018-06-13T19:16:33.545Z,14.85
2018-06-13T19:19:36.512Z,14.76
2018-06-13T19:22:39.651Z,14.68
2018-06-13T19:25:42.811Z,14.61
2018-06-13T19:28:45.811Z,14.55
2018-06-13T19:31:48.793Z,14.51
2018-06-13T19:34:51.783Z,14.46
2018-06-13T19:37:55.777Z,14.43
2018-06-13T19:40:58.988Z,14.38
2018-06-13T19:44:02.021Z,14.36
2018-06-13T19:47:10.889Z,14.29
2018-06-13T19:50:13.912Z,14.29
2018-06-13T19:53:22.637Z,14.24
2018-06-13T19:56:27.720Z,14.23
2018-06-13T19:59:30.722Z,14.22
2018-06-13T20:02:39.432Z,14.20
2018-06-13T20:05:43.033Z,14.16
2018-06-13T20:08:46.056Z,14.20
2018-06-13T20:11:50.100Z,14.19
2018-06-13T20:14:58.756Z,14.22
2018-06-13T20:18:07.345Z,14.18
2018-06-13T20:21:11.276Z,14.09
2018-06-13T20:24:14.276Z,14.07
2018-06-13T20:27:22.900Z,14.06
2018-06-13T20:30:31.389Z,14.03
2018-06-13T20:33:34.498Z,13.96
2018-06-13T20:36:37.585Z,13.90
2018-06-13T20:39:40.644Z,13.83
2018-06-13T20:42:43.593Z,13.78
2018-06-13T20:45:46.842Z,13.72
2018-06-13T20:48:49.903Z,13.63
2018-06-13T20:51:52.966Z,13.52
2018-06-13T20:54:56.002Z,13.50
2018-06-13T20:57:59.008Z,13.46
2018-06-13T21:01:02.012Z,13.48
2018-06-13T21:04:05.084Z,13.47
2018-06-13T21:07:07.989Z,13.47
2018-06-13T21:10:11.054Z,13.48
2018-06-13T21:13:13.995Z,13.50
2018-06-13T21:16:17.521Z,13.49
2018-06-13T21:19:20.644Z,13.46
2018-06-13T21:22:23.788Z,13.49
2018-06-13T21:25:26.777Z,13.50
2018-06-13T21:28:29.741Z,13.49
2018-06-13T21:31:32.760Z,13.47
2018-06-13T21:34:35.791Z,13.47
2018-06-13T21:37:38.740Z,13.45
2018-06-13T21:40:41.820Z,13.44
2018-06-13T21:43:44.815Z,13.45
2018-06-13T21:46:47.839Z,13.46
2018-06-13T21:49:50.949Z,13.47
2018-06-13T21:52:55.324Z,13.48
2018-06-13T21:55:59.458Z,13.49
2018-06-13T21:59:02.517Z,13.51
2018-06-13T22:02:05.529Z,13.49
2018-06-13T22:05:10.151Z,13.52
2018-06-13T22:08:13.121Z,13.54
2018-06-13T22:11:17.801Z,13.56
2018-06-13T22:14:22.053Z,13.57
2018-06-13T22:17:25.502Z,13.49
2018-06-13T22:20:31.032Z,13.46
2018-06-13T22:23:33.985Z,13.43
2018-06-13T22:26:37.597Z,13.34
2018-06-13T22:29:41.777Z,13.32
2018-06-13T22:32:46.400Z,13.34
2018-06-13T22:35:49.526Z,13.35
2018-06-13T22:38:55.329Z,13.33
2018-06-13T22:41:59.030Z,13.30
2018-06-13T22:45:02.104Z,13.27
2018-06-13T22:48:05.196Z,13.23
2018-06-13T22:51:08.216Z,13.23
2018-06-13T22:54:13.238Z,13.25
2018-06-13T22:57:17.347Z,13.23
2018-06-13T23:00:26.121Z,13.22
2018-06-13T23:03:30.190Z,13.23
2018-06-13T23:06:34.379Z,13.16
2018-06-13T23:09:37.345Z,13.05
2018-06-13T23:12:41.317Z,12.91
2018-06-13T23:15:46.069Z,12.65
2018-06-13T23:18:49.085Z,12.46
2018-06-13T23:21:52.015Z,12.24
2018-06-13T23:24:55.621Z,12.03
2018-06-13T23:27:58.796Z,11.83
2018-06-13T23:31:01.719Z,11.68
2018-06-13T23:34:05.067Z,11.48
2018-06-13T23:37:08.071Z,11.32
2018-06-13T23:40:12.187Z,11.21
2018-06-13T23:43:15.829Z,11.12
2018-06-13T23:46:19.683Z,10.98
2018-06-13T23:49:24.280Z,10.93
2018-06-13T23:52:27.892Z,10.89
2018-06-13T23:55:32.015Z,10.84
2018-06-13T23:58:35.730Z,10.71
